sensor_id;sensor_type;location;lat;lon;timestamp;temperature;humidity
16968;DHT22;64862;54.398;10.126;2023-03-04T00:01:43;6.70;99.90
16968;DHT22;64862;54.398;10.126;2023-03-04T00:11:46;6.50;99.90
16968;DHT22;64862;54.398;10.126;2023-03-04T00:21:48;6.40;99.90
16968;DHT22;64862;54.398;10.126;2023-03-04T00:31:52;6.50;99.90
16968;DHT22;64862;54.398;10.126;2023-03-04T00:41:54;6.60;99.90
16968;DHT22;64862;54.398;10.126;2023-03-04T00:51:57;6.60;99.90
16968;DHT22;64862;54.398;10.126;2023-03-04T01:01:59;6.60;99.90
16968;DHT22;64862;54.398;10.126;2023-03-04T01:12:03;6.60;99.90
16968;DHT22;64862;54.398;10.126;2023-03-04T01:22:04;6.60;99.90
16968;DHT22;64862;54.398;10.126;2023-03-04T01:32:08;6.60;99.90
16968;DHT22;64862;54.398;10.126;2023-03-04T01:42:16;6.60;99.90
16968;DHT22;64862;54.398;10.126;2023-03-04T01:52:20;6.70;99.90
16968;DHT22;64862;54.398;10.126;2023-03-04T02:02:24;6.80;99.90
16968;DHT22;64862;54.398;10.126;2023-03-04T02:12:27;6.70;99.90
16968;DHT22;64862;54.398;10.126;2023-03-04T02:22:29;6.80;99.90
16968;DHT22;64862;54.398;10.126;2023-03-04T02:32:33;6.70;99.90
16968;DHT22;64862;54.398;10.126;2023-03-04T02:42:35;6.70;99.90
16968;DHT22;64862;54.398;10.126;2023-03-04T02:52:39;6.70;99.90
16968;DHT22;64862;54.398;10.126;2023-03-04T03:02:41;6.70;99.90
16968;DHT22;64862;54.398;10.126;2023-03-04T03:12:45;6.60;99.90
16968;DHT22;64862;54.398;10.126;2023-03-04T03:22:47;6.60;99.90
16968;DHT22;64862;54.398;10.126;2023-03-04T03:32:50;6.60;99.90
16968;DHT22;64862;54.398;10.126;2023-03-04T03:42:52;6.60;99.90
16968;DHT22;64862;54.398;10.126;2023-03-04T03:52:56;6.50;99.90
16968;DHT22;64862;54.398;10.126;2023-03-04T04:02:59;6.40;99.90
16968;DHT22;64862;54.398;10.126;2023-03-04T04:13:03;6.40;99.90
16968;DHT22;64862;54.398;10.126;2023-03-04T04:23:05;6.30;99.90
16968;DHT22;64862;54.398;10.126;2023-03-04T04:33:09;6.30;99.90
16968;DHT22;64862;54.398;10.126;2023-03-04T04:43:12;6.40;99.90
16968;DHT22;64862;54.398;10.126;2023-03-04T04:53:15;6.30;99.90
16968;DHT22;64862;54.398;10.126;2023-03-04T05:03:17;6.30;99.90
16968;DHT22;64862;54.398;10.126;2023-03-04T05:13:21;6.20;99.90
16968;DHT22;64862;54.398;10.126;2023-03-04T05:23:23;6.10;99.90
16968;DHT22;64862;54.398;10.126;2023-03-04T05:33:27;5.90;99.90
16968;DHT22;64862;54.398;10.126;2023-03-04T05:43:29;5.90;99.90
16968;DHT22;64862;54.398;10.126;2023-03-04T05:53:33;5.80;99.90
16968;DHT22;64862;54.398;10.126;2023-03-04T06:03:36;5.90;99.90
16968;DHT22;64862;54.398;10.126;2023-03-04T06:13:39;5.80;99.90
16968;DHT22;64862;54.398;10.126;2023-03-04T06:23:41;5.80;99.90
16968;DHT22;64862;54.398;10.126;2023-03-04T06:33:46;5.70;99.90
16968;DHT22;64862;54.398;10.126;2023-03-04T06:43:48;5.80;99.90
16968;DHT22;64862;54.398;10.126;2023-03-04T06:53:51;5.80;99.90
16968;DHT22;64862;54.398;10.126;2023-03-04T07:03:54;5.70;99.90
16968;DHT22;64862;54.398;10.126;2023-03-04T07:13:58;5.70;99.90
16968;DHT22;64862;54.398;10.126;2023-03-04T07:24:00;5.90;99.90
16968;DHT22;64862;54.398;10.126;2023-03-04T07:34:06;6.00;99.90
16968;DHT22;64862;54.398;10.126;2023-03-04T07:44:10;6.50;99.90
16968;DHT22;64862;54.398;10.126;2023-03-04T07:54:14;7.20;99.90
16968;DHT22;64862;54.398;10.126;2023-03-04T08:04:16;9.40;99.90
16968;DHT22;64862;54.398;10.126;2023-03-04T08:14:19;8.20;99.90
16968;DHT22;64862;54.398;10.126;2023-03-04T08:24:21;7.00;99.90
16968;DHT22;64862;54.398;10.126;2023-03-04T08:34:26;7.00;99.90
16968;DHT22;64862;54.398;10.126;2023-03-04T08:44:28;8.50;99.90
16968;DHT22;64862;54.398;10.126;2023-03-04T08:54:32;8.20;99.90
16968;DHT22;64862;54.398;10.126;2023-03-04T09:04:34;7.10;99.90
16968;DHT22;64862;54.398;10.126;2023-03-04T09:14:37;7.00;99.90
16968;DHT22;64862;54.398;10.126;2023-03-04T09:24:39;7.40;99.90
16968;DHT22;64862;54.398;10.126;2023-03-04T09:34:43;7.10;99.90
16968;DHT22;64862;54.398;10.126;2023-03-04T09:44:45;7.30;99.90
16968;DHT22;64862;54.398;10.126;2023-03-04T09:54:59;7.50;99.90
16968;DHT22;64862;54.398;10.126;2023-03-04T10:05:05;7.10;99.90
16968;DHT22;64862;54.398;10.126;2023-03-04T10:15:20;7.30;99.90
16968;DHT22;64862;54.398;10.126;2023-03-04T10:25:25;7.40;99.90
16968;DHT22;64862;54.398;10.126;2023-03-04T10:35:33;7.20;99.90
16968;DHT22;64862;54.398;10.126;2023-03-04T10:45:38;6.70;99.90
16968;DHT22;64862;54.398;10.126;2023-03-04T10:55:44;6.60;99.90
16968;DHT22;64862;54.398;10.126;2023-03-04T11:05:47;6.60;99.90
16968;DHT22;64862;54.398;10.126;2023-03-04T11:15:52;6.60;99.90
16968;DHT22;64862;54.398;10.126;2023-03-04T11:25:57;6.70;99.90
16968;DHT22;64862;54.398;10.126;2023-03-04T11:36:13;6.90;99.90
16968;DHT22;64862;54.398;10.126;2023-03-04T11:57:04;7.50;99.90
16968;DHT22;64862;54.398;10.126;2023-03-04T12:07:15;7.30;99.90
16968;DHT22;64862;54.398;10.126;2023-03-04T12:17:47;7.10;99.90
16968;DHT22;64862;54.398;10.126;2023-03-04T12:28:03;6.70;99.90
16968;DHT22;64862;54.398;10.126;2023-03-04T12:38:41;6.90;99.90
16968;DHT22;64862;54.398;10.126;2023-03-04T12:48:49;7.00;99.90
16968;DHT22;64862;54.398;10.126;2023-03-04T12:58:55;6.80;99.90
16968;DHT22;64862;54.398;10.126;2023-03-04T13:09:02;7.30;99.90
16968;DHT22;64862;54.398;10.126;2023-03-04T13:29:42;6.80;99.90
16968;DHT22;64862;54.398;10.126;2023-03-04T13:39:44;7.00;99.90
16968;DHT22;64862;54.398;10.126;2023-03-04T13:49:48;7.20;99.90
16968;DHT22;64862;54.398;10.126;2023-03-04T13:59:53;7.00;99.90
16968;DHT22;64862;54.398;10.126;2023-03-04T14:10:01;7.10;99.90
16968;DHT22;64862;54.398;10.126;2023-03-04T14:20:16;7.40;99.90
16968;DHT22;64862;54.398;10.126;2023-03-04T14:30:25;7.00;99.90
16968;DHT22;64862;54.398;10.126;2023-03-04T14:40:30;7.10;99.90
16968;DHT22;64862;54.398;10.126;2023-03-04T14:50:34;6.70;99.90
16968;DHT22;64862;54.398;10.126;2023-03-04T15:00:37;6.90;99.90
16968;DHT22;64862;54.398;10.126;2023-03-04T15:10:42;7.00;99.90
16968;DHT22;64862;54.398;10.126;2023-03-04T15:20:52;6.80;99.90
16968;DHT22;64862;54.398;10.126;2023-03-04T15:30:55;6.70;99.90
16968;DHT22;64862;54.398;10.126;2023-03-04T15:40:57;6.50;99.90
16968;DHT22;64862;54.398;10.126;2023-03-04T15:51:02;6.40;99.90
16968;DHT22;64862;54.398;10.126;2023-03-04T16:01:04;6.30;99.90
16968;DHT22;64862;54.398;10.126;2023-03-04T16:11:09;6.50;99.90
16968;DHT22;64862;54.398;10.126;2023-03-04T16:21:17;6.30;99.90
16968;DHT22;64862;54.398;10.126;2023-03-04T16:31:21;6.30;99.90
16968;DHT22;64862;54.398;10.126;2023-03-04T16:41:25;6.30;99.90
16968;DHT22;64862;54.398;10.126;2023-03-04T16:51:33;6.20;99.90
16968;DHT22;64862;54.398;10.126;2023-03-04T17:01:36;6.20;99.90
16968;DHT22;64862;54.398;10.126;2023-03-04T17:11:39;6.20;99.90
16968;DHT22;64862;54.398;10.126;2023-03-04T17:21:41;6.30;99.90
16968;DHT22;64862;54.398;10.126;2023-03-04T17:31:44;6.20;99.90
16968;DHT22;64862;54.398;10.126;2023-03-04T17:41:48;6.10;99.90
16968;DHT22;64862;54.398;10.126;2023-03-04T17:51:52;6.10;99.90
16968;DHT22;64862;54.398;10.126;2023-03-04T18:01:54;6.10;99.90
16968;DHT22;64862;54.398;10.126;2023-03-04T18:11:57;5.90;99.90
16968;DHT22;64862;54.398;10.126;2023-03-04T18:22:00;5.80;99.90
16968;DHT22;64862;54.398;10.126;2023-03-04T18:32:04;5.50;99.90
16968;DHT22;64862;54.398;10.126;2023-03-04T18:42:06;5.40;99.90
16968;DHT22;64862;54.398;10.126;2023-03-04T18:52:09;5.10;99.90
16968;DHT22;64862;54.398;10.126;2023-03-04T19:02:16;5.00;99.90
16968;DHT22;64862;54.398;10.126;2023-03-04T19:12:21;4.80;99.90
16968;DHT22;64862;54.398;10.126;2023-03-04T19:22:23;4.60;99.90
16968;DHT22;64862;54.398;10.126;2023-03-04T19:32:26;4.40;99.90
16968;DHT22;64862;54.398;10.126;2023-03-04T19:42:28;4.20;99.90
16968;DHT22;64862;54.398;10.126;2023-03-04T19:52:32;4.00;99.90
16968;DHT22;64862;54.398;10.126;2023-03-04T20:02:34;3.90;99.90
16968;DHT22;64862;54.398;10.126;2023-03-04T20:12:37;3.90;99.90
16968;DHT22;64862;54.398;10.126;2023-03-04T20:22:39;3.80;99.90
16968;DHT22;64862;54.398;10.126;2023-03-04T20:32:43;3.60;99.90
16968;DHT22;64862;54.398;10.126;2023-03-04T20:42:45;3.50;99.90
16968;DHT22;64862;54.398;10.126;2023-03-04T20:52:49;3.50;99.90
16968;DHT22;64862;54.398;10.126;2023-03-04T21:02:51;3.90;99.90
16968;DHT22;64862;54.398;10.126;2023-03-04T21:12:56;4.00;99.90
16968;DHT22;64862;54.398;10.126;2023-03-04T21:22:58;4.10;99.90
16968;DHT22;64862;54.398;10.126;2023-03-04T21:33:01;4.00;99.90
16968;DHT22;64862;54.398;10.126;2023-03-04T21:43:03;3.90;99.90
16968;DHT22;64862;54.398;10.126;2023-03-04T21:53:07;4.10;99.90
16968;DHT22;64862;54.398;10.126;2023-03-04T22:03:10;4.10;99.90
16968;DHT22;64862;54.398;10.126;2023-03-04T22:13:14;4.20;99.90
16968;DHT22;64862;54.398;10.126;2023-03-04T22:23:16;4.40;99.90
16968;DHT22;64862;54.398;10.126;2023-03-04T22:33:21;4.50;99.90
16968;DHT22;64862;54.398;10.126;2023-03-04T22:43:23;4.50;99.90
16968;DHT22;64862;54.398;10.126;2023-03-04T22:53:27;4.50;99.90
16968;DHT22;64862;54.398;10.126;2023-03-04T23:03:29;4.60;99.90
16968;DHT22;64862;54.398;10.126;2023-03-04T23:13:32;4.40;99.90
16968;DHT22;64862;54.398;10.126;2023-03-04T23:23:35;4.20;99.90
16968;DHT22;64862;54.398;10.126;2023-03-04T23:33:39;4.20;99.90
16968;DHT22;64862;54.398;10.126;2023-03-04T23:43:42;4.00;99.90
16968;DHT22;64862;54.398;10.126;2023-03-04T23:53:46;3.80;99.90
